Time;durP1;ratioP1;P1;durP2;ratioP2;P2;SDS_P1;SDS_P2;PMS_P1;PMS_P2;Temp;Humidity;BMP_temperature;BMP_pressure;BME280_temperature;BME280_humidity;BME280_pressure;Samples;Min_cycle;Max_cycle;Signal;HPM_P1;HPM_P2
2022/09/17 00:00:23;;;;;;;0.00;0.00;;;;;;;;;;1759399;27;20201;-67
2022/09/17 00:01:16;;;;;;;0.00;0.00;;;;;;;;;;1767499;27;20208;-67
2022/09/17 00:02:09;;;;;;;0.00;0.00;;;;;;;;;;1762182;27;20247;-67
2022/09/17 00:03:00;;;;;;;0.00;0.00;;;;;;;;;;1766465;27;20237;-67
2022/09/17 00:03:55;;;;;;;0.00;0.00;;;;;;;;;;1758661;28;20231;-67
2022/09/17 00:04:47;;;;;;;0.00;0.00;;;;;;;;;;1755182;28;20559;-67
2022/09/17 00:05:39;;;;;;;0.00;0.00;;;;;;;;;;1759297;28;20245;-69
2022/09/17 00:06:31;;;;;;;0.00;0.00;;;;;;;;;;1755855;28;20262;-68
2022/09/17 00:07:23;;;;;;;0.00;0.00;;;;;;;;;;1760860;28;20201;-68
2022/09/17 00:08:14;;;;;;;0.00;0.00;;;;;;;;;;1760398;28;20212;-68
2022/09/17 00:09:07;;;;;;;0.00;0.00;;;;;;;;;;1765356;27;20443;-68
2022/09/17 00:09:59;;;;;;;0.00;0.00;;;;;;;;;;1763701;27;20212;-68
2022/09/17 00:10:50;;;;;;;0.00;0.00;;;;;;;;;;1764874;27;20710;-68
2022/09/17 00:11:43;;;;;;;0.00;0.00;;;;;;;;;;1763089;27;20233;-68
2022/09/17 00:12:34;;;;;;;0.00;0.00;;;;;;;;;;1766276;27;20219;-68
2022/09/17 00:13:26;;;;;;;0.00;0.00;;;;;;;;;;1762964;27;20208;-68
2022/09/17 00:14:17;;;;;;;0.00;0.00;;;;;;;;;;1767123;27;20204;-68
2022/09/17 00:15:10;;;;;;;0.00;0.00;;;;;;;;;;1762537;27;20319;-68
2022/09/17 00:16:02;;;;;;;0.00;0.00;;;;;;;;;;1766520;27;20228;-68
2022/09/17 00:16:55;;;;;;;0.00;0.00;;;;;;;;;;1761675;27;20779;-68
2022/09/17 00:17:46;;;;;;;0.00;0.00;;;;;;;;;;1767969;27;20204;-68
2022/09/17 00:18:40;;;;;;;0.00;0.00;;;;;;;;;;1761518;27;20233;-68
2022/09/17 00:19:33;;;;;;;0.00;0.00;;;;;;;;;;1767807;27;20228;-69
2022/09/17 00:20:25;;;;;;;0.00;0.00;;;;;;;;;;1760732;27;20209;-68
2022/09/17 00:21:16;;;;;;;0.00;0.00;;;;;;;;;;1767235;27;20264;-67
2022/09/17 00:22:09;;;;;;;0.00;0.00;;;;;;;;;;1762232;27;20197;-67
2022/09/17 00:23:00;;;;;;;0.00;0.00;;;;;;;;;;1766545;27;20460;-67
2022/09/17 00:23:55;;;;;;;0.00;0.00;;;;;;;;;;1763209;27;20193;-67
2022/09/17 00:24:47;;;;;;;0.00;0.00;;;;;;;;;;1765417;27;20266;-67
2022/09/17 00:25:38;;;;;;;0.00;0.00;;;;;;;;;;1762814;27;20326;-68
2022/09/17 00:26:31;;;;;;;0.00;0.00;;;;;;;;;;1765005;27;20461;-68
2022/09/17 00:27:22;;;;;;;0.00;0.00;;;;;;;;;;1764753;27;20200;-69
2022/09/17 00:28:15;;;;;;;0.00;0.00;;;;;;;;;;1764236;27;20549;-68
2022/09/17 00:29:06;;;;;;;0.00;0.00;;;;;;;;;;1765327;27;20219;-68
2022/09/17 00:29:58;;;;;;;0.00;0.00;;;;;;;;;;1763496;27;20197;-68
2022/09/17 00:30:49;;;;;;;0.00;0.00;;;;;;;;;;1764319;27;20232;-69
2022/09/17 00:31:41;;;;;;;0.00;0.00;;;;;;;;;;1763211;27;20274;-68
2022/09/17 00:32:33;;;;;;;0.00;0.00;;;;;;;;;;1765874;27;20215;-68
2022/09/17 00:33:25;;;;;;;0.00;0.00;;;;;;;;;;1762897;27;20204;-69
2022/09/17 00:34:16;;;;;;;0.00;0.00;;;;;;;;;;1755428;28;20212;-68
2022/09/17 00:35:10;;;;;;;0.00;0.00;;;;;;;;;;1758368;28;20657;-68
2022/09/17 00:36:02;;;;;;;0.00;0.00;;;;;;;;;;1756220;28;20236;-67
2022/09/17 00:36:54;;;;;;;0.00;0.00;;;;;;;;;;1758986;28;20273;-68
2022/09/17 00:37:46;;;;;;;0.00;0.00;;;;;;;;;;1760543;28;20205;-68
2022/09/17 00:38:37;;;;;;;0.00;0.00;;;;;;;;;;1760726;27;20197;-68
2022/09/17 00:39:29;;;;;;;0.00;0.00;;;;;;;;;;1767872;27;20196;-68
2022/09/17 00:40:21;;;;;;;0.00;0.00;;;;;;;;;;1760194;28;20216;-67
2022/09/17 00:41:13;;;;;;;0.00;0.00;;;;;;;;;;1767787;27;20307;-67
2022/09/17 00:42:09;;;;;;;0.00;0.00;;;;;;;;;;1759685;28;20243;-68
2022/09/17 00:43:01;;;;;;;0.00;0.00;;;;;;;;;;1759811;28;20274;-68
2022/09/17 00:43:54;;;;;;;0.00;0.00;;;;;;;;;;1763138;27;20205;-67
2022/09/17 00:44:49;;;;;;;0.00;0.00;;;;;;;;;;1765386;27;20680;-68
2022/09/17 00:45:40;;;;;;;0.00;0.00;;;;;;;;;;1762838;27;20238;-68
2022/09/17 00:46:35;;;;;;;0.00;0.00;;;;;;;;;;1764553;27;20491;-69
2022/09/17 00:47:29;;;;;;;0.00;0.00;;;;;;;;;;1765494;27;20219;-68
2022/09/17 00:48:21;;;;;;;0.00;0.00;;;;;;;;;;1763258;27;20209;-68
2022/09/17 00:49:16;;;;;;;0.00;0.00;;;;;;;;;;1766142;27;20425;-68
2022/09/17 00:50:11;;;;;;;0.00;0.00;;;;;;;;;;1762773;27;20209;-68
2022/09/17 00:51:02;;;;;;;0.00;0.00;;;;;;;;;;1766141;27;20251;-69
2022/09/17 00:51:56;;;;;;;0.00;0.00;;;;;;;;;;1761321;27;20225;-69
2022/09/17 00:52:49;;;;;;;0.00;0.00;;;;;;;;;;1767647;27;20196;-69
2022/09/17 00:53:41;;;;;;;0.00;0.00;;;;;;;;;;1761221;27;20287;-68
2022/09/17 00:54:33;;;;;;;0.00;0.00;;;;;;;;;;1767622;27;20633;-68
2022/09/17 00:55:27;;;;;;;0.00;0.00;;;;;;;;;;1760345;27;20212;-68
2022/09/17 00:56:21;;;;;;;0.00;0.00;;;;;;;;;;1766583;27;20204;-68
2022/09/17 00:57:14;;;;;;;0.00;0.00;;;;;;;;;;1762812;27;20205;-68
2022/09/17 00:58:06;;;;;;;0.00;0.00;;;;;;;;;;1765491;27;20200;-68
2022/09/17 00:58:59;;;;;;;0.00;0.00;;;;;;;;;;1759437;28;20201;-67
2022/09/17 00:59:50;;;;;;;0.00;0.00;;;;;;;;;;1760155;28;20349;-68
2022/09/17 01:00:45;;;;;;;0.00;0.00;;;;;;;;;;1763006;27;20307;-69
2022/09/17 01:01:36;;;;;;;0.00;0.00;;;;;;;;;;1763827;27;20481;-68
2022/09/17 01:02:28;;;;;;;0.00;0.00;;;;;;;;;;1764849;27;20200;-68
2022/09/17 01:03:20;;;;;;;0.00;0.00;;;;;;;;;;1763317;27;20209;-68
2022/09/17 01:04:16;;;;;;;0.00;0.00;;;;;;;;;;1754588;28;20259;-68
2022/09/17 01:05:09;;;;;;;0.00;0.00;;;;;;;;;;1757799;28;20212;-68
2022/09/17 01:06:06;;;;;;;0.00;0.00;;;;;;;;;;1762501;27;20267;-69
2022/09/17 01:07:02;;;;;;;0.00;0.00;;;;;;;;;;1760018;28;20262;-68
2022/09/17 01:08:02;;;;;;;0.00;0.00;;;;;;;;;;1767784;27;20649;-69
2022/09/17 01:09:00;;;;;;;0.00;0.00;;;;;;;;;;1763357;27;20611;-69
2022/09/17 01:09:55;;;;;;;0.00;0.00;;;;;;;;;;1764698;27;20200;-69
2022/09/17 01:11:07;;;;;;;0.00;0.00;;;;;;;;;;1763824;27;20232;-68
2022/09/17 01:12:04;;;;;;;0.00;0.00;;;;;;;;;;1754474;28;20271;-68
2022/09/17 01:13:02;;;;;;;0.00;0.00;;;;;;;;;;1767353;27;20622;-68
2022/09/17 01:14:00;;;;;;;0.00;0.00;;;;;;;;;;1763290;27;20196;-68
2022/09/17 01:14:58;;;;;;;0.00;0.00;;;;;;;;;;1764505;27;20199;-68
2022/09/17 01:15:56;;;;;;;0.00;0.00;;;;;;;;;;1764342;27;20235;-69
2022/09/17 01:16:52;;;;;;;0.00;0.00;;;;;;;;;;1762279;27;20648;-69
2022/09/17 01:17:48;;;;;;;0.00;0.00;;;;;;;;;;1767648;27;20200;-69
2022/09/17 01:18:45;;;;;;;0.00;0.00;;;;;;;;;;1761159;27;20201;-69
2022/09/17 01:19:52;;;;;;;0.00;0.00;;;;;;;;;;1767033;27;20192;-69
2022/09/17 01:21:02;;;;;;;0.00;0.00;;;;;;;;;;1760904;27;20367;-68
2022/09/17 01:22:00;;;;;;;0.00;0.00;;;;;;;;;;1761239;27;20197;-68
2022/09/17 01:22:57;;;;;;;0.00;0.00;;;;;;;;;;1753451;28;20221;-69
2022/09/17 01:24:07;;;;;;;0.00;0.00;;;;;;;;;;1760043;28;20671;-68
2022/09/17 01:25:23;;;;;;;0.00;0.00;;;;;;;;;;1731336;28;20204;-69
2022/09/17 01:26:24;;;;;;;0.00;0.00;;;;;;;;;;1741769;28;20238;-69
2022/09/17 01:27:34;;;;;;;0.00;0.00;;;;;;;;;;1760169;28;20219;-68
2022/09/17 01:28:41;;;;;;;0.00;0.00;;;;;;;;;;1759481;28;20209;-69
2022/09/17 01:29:38;;;;;;;0.00;0.00;;;;;;;;;;1753501;28;20289;-69
2022/09/17 01:30:34;;;;;;;0.00;0.00;;;;;;;;;;1760666;27;20197;-70
2022/09/17 01:31:38;;;;;;;0.00;0.00;;;;;;;;;;1765146;27;20239;-70
2022/09/17 01:32:31;;;;;;;0.00;0.00;;;;;;;;;;1757949;28;20236;-68
2022/09/17 01:33:26;;;;;;;0.00;0.00;;;;;;;;;;1759956;28;20197;-68
2022/09/17 01:34:21;;;;;;;0.00;0.00;;;;;;;;;;1760839;27;20205;-68
2022/09/17 01:35:15;;;;;;;0.00;0.00;;;;;;;;;;1760034;28;20200;-68
2022/09/17 01:36:13;;;;;;;0.00;0.00;;;;;;;;;;1755760;28;20293;-68
2022/09/17 01:37:09;;;;;;;0.00;0.00;;;;;;;;;;1760853;27;20189;-69
2022/09/17 01:38:03;;;;;;;0.00;0.00;;;;;;;;;;1766224;27;20201;-69
2022/09/17 01:39:00;;;;;;;0.00;0.00;;;;;;;;;;1762205;27;20203;-69
2022/09/17 01:39:53;;;;;;;0.00;0.00;;;;;;;;;;1764511;27;20200;-68
2022/09/17 01:40:48;;;;;;;0.00;0.00;;;;;;;;;;1763344;27;20236;-69
2022/09/17 01:41:43;;;;;;;0.00;0.00;;;;;;;;;;1763181;27;20634;-68
2022/09/17 01:42:38;;;;;;;0.00;0.00;;;;;;;;;;1765655;27;20200;-68
2022/09/17 01:43:31;;;;;;;0.00;0.00;;;;;;;;;;1761977;27;20205;-68
2022/09/17 01:44:26;;;;;;;0.00;0.00;;;;;;;;;;1767314;27;20191;-70
2022/09/17 01:45:18;;;;;;;0.00;0.00;;;;;;;;;;1759741;28;20209;-69
2022/09/17 01:46:15;;;;;;;0.00;0.00;;;;;;;;;;1767379;28;20415;-69
2022/09/17 01:47:09;;;;;;;0.00;0.00;;;;;;;;;;1761371;28;20220;-68
2022/09/17 01:48:03;;;;;;;0.00;0.00;;;;;;;;;;1766189;28;20192;-68
2022/09/17 01:48:58;;;;;;;0.00;0.00;;;;;;;;;;1763125;28;20204;-68
2022/09/17 01:49:52;;;;;;;0.00;0.00;;;;;;;;;;1764850;28;20621;-68
2022/09/17 01:50:49;;;;;;;0.00;0.00;;;;;;;;;;1762967;28;20526;-68
2022/09/17 01:51:43;;;;;;;0.00;0.00;;;;;;;;;;1763161;28;20499;-68
2022/09/17 01:52:36;;;;;;;0.00;0.00;;;;;;;;;;1765426;28;20768;-68
2022/09/17 01:53:31;;;;;;;0.00;0.00;;;;;;;;;;1762215;28;20838;-68
2022/09/17 01:54:24;;;;;;;0.00;0.00;;;;;;;;;;1767197;28;20545;-68
2022/09/17 01:55:18;;;;;;;0.00;0.00;;;;;;;;;;1759866;28;20247;-69
2022/09/17 01:56:10;;;;;;;0.00;0.00;;;;;;;;;;1767368;28;20207;-69
2022/09/17 01:57:04;;;;;;;0.00;0.00;;;;;;;;;;1760842;28;20238;-68
2022/09/17 01:57:57;;;;;;;0.00;0.00;;;;;;;;;;1767035;28;20200;-68
2022/09/17 01:58:52;;;;;;;0.00;0.00;;;;;;;;;;1761733;28;20584;-69
2022/09/17 01:59:46;;;;;;;0.00;0.00;;;;;;;;;;1765857;28;20637;-68
2022/09/17 02:00:41;;;;;;;0.00;0.00;;;;;;;;;;1762000;28;20259;-68
2022/09/17 02:01:37;;;;;;;0.00;0.00;;;;;;;;;;1764527;28;20273;-68
2022/09/17 02:02:32;;;;;;;0.00;0.00;;;;;;;;;;1764573;28;20650;-68
2022/09/17 02:03:26;;;;;;;0.00;0.00;;;;;;;;;;1762882;28;20205;-69
2022/09/17 02:04:21;;;;;;;0.00;0.00;;;;;;;;;;1760637;28;20224;-69
2022/09/17 02:05:16;;;;;;;0.00;0.00;;;;;;;;;;1759059;28;20488;-67
2022/09/17 02:06:10;;;;;;;0.00;0.00;;;;;;;;;;1756313;28;20247;-68
2022/09/17 02:07:04;;;;;;;0.00;0.00;;;;;;;;;;1759169;28;20205;-68
2022/09/17 02:07:58;;;;;;;0.00;0.00;;;;;;;;;;1760440;28;20254;-68
2022/09/17 02:08:51;;;;;;;0.00;0.00;;;;;;;;;;1761049;28;20200;-68
2022/09/17 02:09:46;;;;;;;0.00;0.00;;;;;;;;;;1761349;28;20296;-68
2022/09/17 02:10:41;;;;;;;0.00;0.00;;;;;;;;;;1763528;27;20228;-68
2022/09/17 02:11:35;;;;;;;0.00;0.00;;;;;;;;;;1765817;27;20196;-68
2022/09/17 02:12:28;;;;;;;0.00;0.00;;;;;;;;;;1765874;27;20375;-68
2022/09/17 02:13:23;;;;;;;0.00;0.00;;;;;;;;;;1764585;27;20278;-67
2022/09/17 02:14:16;;;;;;;0.00;0.00;;;;;;;;;;1766958;27;20257;-67
2022/09/17 02:15:11;;;;;;;0.00;0.00;;;;;;;;;;1763862;27;20208;-67
2022/09/17 02:16:05;;;;;;;0.00;0.00;;;;;;;;;;1760138;28;20236;-68
2022/09/17 02:17:03;;;;;;;0.00;0.00;;;;;;;;;;1761210;27;20197;-68
2022/09/17 02:17:57;;;;;;;0.00;0.00;;;;;;;;;;1768828;27;20476;-69
2022/09/17 02:18:50;;;;;;;0.00;0.00;;;;;;;;;;1762929;27;20193;-68
2022/09/17 02:19:42;;;;;;;0.00;0.00;;;;;;;;;;1767240;27;20205;-69
2022/09/17 02:20:38;;;;;;;0.00;0.00;;;;;;;;;;1760070;28;20768;-68
2022/09/17 02:21:31;;;;;;;0.00;0.00;;;;;;;;;;1761136;28;20649;-68
2022/09/17 02:22:24;;;;;;;0.00;0.00;;;;;;;;;;1765290;27;20597;-67
2022/09/17 02:23:18;;;;;;;0.00;0.00;;;;;;;;;;1765168;27;20217;-67
2022/09/17 02:24:13;;;;;;;0.00;0.00;;;;;;;;;;1766408;27;20196;-67
2022/09/17 02:25:06;;;;;;;0.00;0.00;;;;;;;;;;1764302;27;20527;-68
2022/09/17 02:26:00;;;;;;;0.00;0.00;;;;;;;;;;1766128;27;20223;-68
2022/09/17 02:26:55;;;;;;;0.00;0.00;;;;;;;;;;1763127;27;20239;-67
2022/09/17 02:27:51;;;;;;;0.00;0.00;;;;;;;;;;1754851;28;20202;-67
2022/09/17 02:28:45;;;;;;;0.00;0.00;;;;;;;;;;1761918;27;20207;-67
2022/09/17 02:29:39;;;;;;;0.00;0.00;;;;;;;;;;1768251;27;20196;-67
2022/09/17 02:30:30;;;;;;;0.00;0.00;;;;;;;;;;1760755;27;20542;-67
2022/09/17 02:31:23;;;;;;;0.00;0.00;;;;;;;;;;1767667;27;20238;-67
2022/09/17 02:32:15;;;;;;;0.00;0.00;;;;;;;;;;1763869;27;20335;-70
2022/09/17 02:33:10;;;;;;;0.00;0.00;;;;;;;;;;1766426;27;20208;-70
2022/09/17 02:34:02;;;;;;;0.00;0.00;;;;;;;;;;1760884;28;20201;-70
2022/09/17 02:34:54;;;;;;;0.00;0.00;;;;;;;;;;1761217;28;20196;-70
2022/09/17 02:35:46;;;;;;;0.00;0.00;;;;;;;;;;1763520;27;20232;-67
2022/09/17 02:36:38;;;;;;;0.00;0.00;;;;;;;;;;1761086;28;20762;-67
2022/09/17 02:37:29;;;;;;;0.00;0.00;;;;;;;;;;1759172;28;20204;-68
2022/09/17 02:38:22;;;;;;;0.00;0.00;;;;;;;;;;1761286;28;20204;-67
2022/09/17 02:39:13;;;;;;;0.00;0.00;;;;;;;;;;1766999;27;20204;-67
2022/09/17 02:40:06;;;;;;;0.00;0.00;;;;;;;;;;1764165;27;20250;-68
2022/09/17 02:41:01;;;;;;;0.00;0.00;;;;;;;;;;1765989;27;20725;-68
2022/09/17 02:41:57;;;;;;;0.00;0.00;;;;;;;;;;1762861;27;20262;-68
2022/09/17 02:42:54;;;;;;;0.00;0.00;;;;;;;;;;1754497;28;20202;-68
2022/09/17 02:43:51;;;;;;;0.00;0.00;;;;;;;;;;1761034;28;20246;-68
2022/09/17 02:44:46;;;;;;;0.00;0.00;;;;;;;;;;1761210;28;20205;-70
2022/09/17 02:45:45;;;;;;;0.00;0.00;;;;;;;;;;1763178;27;20304;-70
2022/09/17 02:46:50;;;;;;;0.00;0.00;;;;;;;;;;1764519;27;20200;-69
2022/09/17 02:47:58;;;;;;;0.00;0.00;;;;;;;;;;1761290;28;20203;-68
2022/09/17 02:49:00;;;;;;;0.00;0.00;;;;;;;;;;1761043;28;20564;-68
2022/09/17 02:50:03;;;;;;;0.00;0.00;;;;;;;;;;1760851;28;20520;-67
2022/09/17 02:51:01;;;;;;;0.00;0.00;;;;;;;;;;1759982;28;20482;-67
2022/09/17 02:51:58;;;;;;;0.00;0.00;;;;;;;;;;1760673;28;20666;-68
2022/09/17 02:52:56;;;;;;;0.00;0.00;;;;;;;;;;1754299;28;20253;-67
2022/09/17 02:53:51;;;;;;;0.00;0.00;;;;;;;;;;1760829;28;20200;-68
2022/09/17 02:54:47;;;;;;;0.00;0.00;;;;;;;;;;1761200;28;20657;-68
2022/09/17 02:55:42;;;;;;;0.00;0.00;;;;;;;;;;1759277;28;20237;-67
2022/09/17 02:56:39;;;;;;;0.00;0.00;;;;;;;;;;1760893;28;20631;-68
2022/09/17 02:57:34;;;;;;;0.00;0.00;;;;;;;;;;1766070;27;20200;-67
2022/09/17 02:58:28;;;;;;;0.00;0.00;;;;;;;;;;1763443;27;21663;-67
2022/09/17 02:59:23;;;;;;;0.00;0.00;;;;;;;;;;1761339;28;20492;-67
2022/09/17 03:00:16;;;;;;;0.00;0.00;;;;;;;;;;1759442;28;20208;-67
2022/09/17 03:01:11;;;;;;;0.00;0.00;;;;;;;;;;1754510;28;20209;-67
2022/09/17 03:02:03;;;;;;;0.00;0.00;;;;;;;;;;1761177;27;20197;-68
2022/09/17 03:02:59;;;;;;;0.00;0.00;;;;;;;;;;1768481;27;20200;-68
2022/09/17 03:03:50;;;;;;;0.00;0.00;;;;;;;;;;1760550;28;20254;-68
2022/09/17 03:04:45;;;;;;;0.00;0.00;;;;;;;;;;1761026;28;20200;-68
2022/09/17 03:05:37;;;;;;;0.00;0.00;;;;;;;;;;1762697;27;20565;-68
2022/09/17 03:06:30;;;;;;;0.00;0.00;;;;;;;;;;1760837;28;20205;-68
2022/09/17 03:07:22;;;;;;;0.00;0.00;;;;;;;;;;1764276;27;20212;-68
2022/09/17 03:08:15;;;;;;;0.00;0.00;;;;;;;;;;1765297;27;20197;-68
2022/09/17 03:09:06;;;;;;;0.00;0.00;;;;;;;;;;1765840;27;20372;-68
2022/09/17 03:09:58;;;;;;;0.00;0.00;;;;;;;;;;1764783;27;20630;-67
2022/09/17 03:10:49;;;;;;;0.00;0.00;;;;;;;;;;1764895;27;20688;-68
2022/09/17 03:11:42;;;;;;;0.00;0.00;;;;;;;;;;1764213;27;20283;-67
2022/09/17 03:12:33;;;;;;;0.00;0.00;;;;;;;;;;1766313;27;20200;-67
2022/09/17 03:13:25;;;;;;;0.00;0.00;;;;;;;;;;1763539;27;20299;-67
2022/09/17 03:14:19;;;;;;;0.00;0.00;;;;;;;;;;1767214;27;20456;-67
2022/09/17 03:15:11;;;;;;;0.00;0.00;;;;;;;;;;1762190;27;20720;-69
2022/09/17 03:16:02;;;;;;;0.00;0.00;;;;;;;;;;1767238;27;20243;-68
2022/09/17 03:16:54;;;;;;;0.00;0.00;;;;;;;;;;1762454;27;20204;-68
2022/09/17 03:17:46;;;;;;;0.00;0.00;;;;;;;;;;1761335;28;20563;-68
2022/09/17 03:18:38;;;;;;;0.00;0.00;;;;;;;;;;1760493;28;20205;-68
2022/09/17 03:19:30;;;;;;;0.00;0.00;;;;;;;;;;1768173;27;20577;-68
2022/09/17 03:20:22;;;;;;;0.00;0.00;;;;;;;;;;1760921;27;20200;-69
2022/09/17 03:21:14;;;;;;;0.00;0.00;;;;;;;;;;1768222;27;20196;-68
2022/09/17 03:22:05;;;;;;;0.00;0.00;;;;;;;;;;1761868;27;20585;-68
2022/09/17 03:22:56;;;;;;;0.00;0.00;;;;;;;;;;1767920;27;20218;-68
2022/09/17 03:23:48;;;;;;;0.00;0.00;;;;;;;;;;1762165;27;20541;-68
2022/09/17 03:24:39;;;;;;;0.00;0.00;;;;;;;;;;1767508;27;20199;-69
2022/09/17 03:25:32;;;;;;;0.00;0.00;;;;;;;;;;1761811;27;20245;-69
2022/09/17 03:26:23;;;;;;;0.00;0.00;;;;;;;;;;1766980;27;20196;-68
2022/09/17 03:27:15;;;;;;;0.00;0.00;;;;;;;;;;1763469;27;20201;-68
2022/09/17 03:28:06;;;;;;;0.00;0.00;;;;;;;;;;1766140;27;20212;-68
2022/09/17 03:28:58;;;;;;;0.00;0.00;;;;;;;;;;1764171;27;20617;-68
2022/09/17 03:29:49;;;;;;;0.00;0.00;;;;;;;;;;1765025;27;20200;-68
2022/09/17 03:30:42;;;;;;;0.00;0.00;;;;;;;;;;1762962;27;20243;-68
2022/09/17 03:31:33;;;;;;;0.00;0.00;;;;;;;;;;1765005;27;20204;-68
2022/09/17 03:32:25;;;;;;;0.00;0.00;;;;;;;;;;1765067;27;20196;-68
2022/09/17 03:33:16;;;;;;;0.00;0.00;;;;;;;;;;1764447;27;20233;-70
2022/09/17 03:34:10;;;;;;;0.00;0.00;;;;;;;;;;1761574;27;20545;-71
2022/09/17 03:35:05;;;;;;;0.00;0.00;;;;;;;;;;1760405;28;20197;-71
2022/09/17 03:35:57;;;;;;;0.00;0.00;;;;;;;;;;1757188;28;20228;-71
2022/09/17 03:36:49;;;;;;;0.00;0.00;;;;;;;;;;1758394;28;20205;-71
2022/09/17 03:37:40;;;;;;;0.00;0.00;;;;;;;;;;1761005;28;20279;-71
2022/09/17 03:38:33;;;;;;;0.00;0.00;;;;;;;;;;1760661;28;20235;-69
2022/09/17 03:39:24;;;;;;;0.00;0.00;;;;;;;;;;1768200;27;20239;-68
2022/09/17 03:40:16;;;;;;;0.00;0.00;;;;;;;;;;1760610;27;20208;-67
2022/09/17 03:41:07;;;;;;;0.00;0.00;;;;;;;;;;1761216;28;20205;-67
2022/09/17 03:42:00;;;;;;;0.00;0.00;;;;;;;;;;1760906;27;20200;-67
2022/09/17 03:42:51;;;;;;;0.00;0.00;;;;;;;;;;1768153;27;20199;-67
2022/09/17 03:43:43;;;;;;;0.00;0.00;;;;;;;;;;1761925;27;20229;-67
2022/09/17 03:44:34;;;;;;;0.00;0.00;;;;;;;;;;1768281;27;20211;-67
2022/09/17 03:45:26;;;;;;;0.00;0.00;;;;;;;;;;1760771;27;20675;-68
2022/09/17 03:46:18;;;;;;;0.00;0.00;;;;;;;;;;1767585;27;20200;-68
2022/09/17 03:47:11;;;;;;;0.00;0.00;;;;;;;;;;1762590;27;20656;-68
2022/09/17 03:48:02;;;;;;;0.00;0.00;;;;;;;;;;1766839;27;20233;-68
2022/09/17 03:48:55;;;;;;;0.00;0.00;;;;;;;;;;1763605;27;20809;-68
2022/09/17 03:49:47;;;;;;;0.00;0.00;;;;;;;;;;1766249;27;20291;-68
2022/09/17 03:50:38;;;;;;;0.00;0.00;;;;;;;;;;1762944;27;20622;-68
2022/09/17 03:51:31;;;;;;;0.00;0.00;;;;;;;;;;1765525;27;20515;-68
2022/09/17 03:52:22;;;;;;;0.00;0.00;;;;;;;;;;1764641;27;20205;-68
2022/09/17 03:53:14;;;;;;;0.00;0.00;;;;;;;;;;1764996;27;20220;-68
2022/09/17 03:54:06;;;;;;;0.00;0.00;;;;;;;;;;1765162;27;20204;-68
2022/09/17 03:54:58;;;;;;;0.00;0.00;;;;;;;;;;1764350;27;20595;-68
2022/09/17 03:55:49;;;;;;;0.00;0.00;;;;;;;;;;1764626;27;20594;-68
2022/09/17 03:56:41;;;;;;;0.00;0.00;;;;;;;;;;1763933;27;20205;-68
2022/09/17 03:57:33;;;;;;;0.00;0.00;;;;;;;;;;1766127;27;20208;-68
2022/09/17 03:58:25;;;;;;;0.00;0.00;;;;;;;;;;1763679;27;20205;-68
2022/09/17 03:59:16;;;;;;;0.00;0.00;;;;;;;;;;1767026;27;20212;-68
2022/09/17 04:00:09;;;;;;;0.00;0.00;;;;;;;;;;1763342;27;20201;-68
2022/09/17 04:01:02;;;;;;;0.00;0.00;;;;;;;;;;1765831;27;20235;-67
2022/09/17 04:01:54;;;;;;;0.00;0.00;;;;;;;;;;1762101;27;20500;-68
2022/09/17 04:02:45;;;;;;;0.00;0.00;;;;;;;;;;1767598;27;20566;-68
2022/09/17 04:03:37;;;;;;;0.00;0.00;;;;;;;;;;1761628;27;20204;-67
2022/09/17 04:04:28;;;;;;;0.00;0.00;;;;;;;;;;1760956;28;20270;-67
2022/09/17 04:05:22;;;;;;;0.00;0.00;;;;;;;;;;1759109;28;20261;-69
2022/09/17 04:06:13;;;;;;;0.00;0.00;;;;;;;;;;1749105;28;20206;-68
2022/09/17 04:07:04;;;;;;;0.00;0.00;;;;;;;;;;1751026;28;20189;-68
2022/09/17 04:07:57;;;;;;;0.00;0.00;;;;;;;;;;1748297;28;20651;-68
2022/09/17 04:08:48;;;;;;;0.00;0.00;;;;;;;;;;1753507;28;20212;-68
2022/09/17 04:09:40;;;;;;;0.00;0.00;;;;;;;;;;1753842;28;20713;-68
2022/09/17 04:10:31;;;;;;;0.00;0.00;;;;;;;;;;1752264;28;20695;-67
2022/09/17 04:11:24;;;;;;;0.00;0.00;;;;;;;;;;1753841;28;20601;-67
2022/09/17 04:12:15;;;;;;;0.00;0.00;;;;;;;;;;1750373;28;21599;-67
2022/09/17 04:13:07;;;;;;;0.00;0.00;;;;;;;;;;1749094;28;20223;-67
2022/09/17 04:13:58;;;;;;;0.00;0.00;;;;;;;;;;1752720;28;20202;-67
2022/09/17 04:14:51;;;;;;;0.00;0.00;;;;;;;;;;1753020;28;20201;-68
2022/09/17 04:15:42;;;;;;;0.00;0.00;;;;;;;;;;1752496;28;20233;-68
2022/09/17 04:16:34;;;;;;;0.00;0.00;;;;;;;;;;1753330;28;20213;-68
2022/09/17 04:17:25;;;;;;;0.00;0.00;;;;;;;;;;1753656;28;20202;-68
2022/09/17 04:18:16;;;;;;;0.00;0.00;;;;;;;;;;1753289;28;20274;-68
2022/09/17 04:19:09;;;;;;;0.00;0.00;;;;;;;;;;1753672;28;20208;-68
2022/09/17 04:20:00;;;;;;;0.00;0.00;;;;;;;;;;1753361;28;20205;-68
2022/09/17 04:20:52;;;;;;;0.00;0.00;;;;;;;;;;1752061;28;20225;-67
2022/09/17 04:21:44;;;;;;;0.00;0.00;;;;;;;;;;1753224;28;20205;-67
2022/09/17 04:22:36;;;;;;;0.00;0.00;;;;;;;;;;1753273;28;20220;-67
2022/09/17 04:23:28;;;;;;;0.00;0.00;;;;;;;;;;1753197;28;20642;-67
2022/09/17 04:24:19;;;;;;;0.00;0.00;;;;;;;;;;1753851;28;20210;-67
2022/09/17 04:25:11;;;;;;;0.00;0.00;;;;;;;;;;1752922;28;20695;-69
2022/09/17 04:26:03;;;;;;;0.00;0.00;;;;;;;;;;1752885;28;20847;-68
2022/09/17 04:26:54;;;;;;;0.00;0.00;;;;;;;;;;1753111;28;20225;-69
2022/09/17 04:27:47;;;;;;;0.00;0.00;;;;;;;;;;1753642;28;20324;-68
2022/09/17 04:28:38;;;;;;;0.00;0.00;;;;;;;;;;1745786;28;20602;-68
2022/09/17 04:29:30;;;;;;;0.00;0.00;;;;;;;;;;1752926;28;20197;-68
2022/09/17 04:30:22;;;;;;;0.00;0.00;;;;;;;;;;1750849;28;20201;-69
2022/09/17 04:31:14;;;;;;;0.00;0.00;;;;;;;;;;1753267;28;20289;-68
2022/09/17 04:32:05;;;;;;;0.00;0.00;;;;;;;;;;1752799;28;20201;-68
2022/09/17 04:32:57;;;;;;;0.00;0.00;;;;;;;;;;1753545;28;20649;-68
2022/09/17 04:33:48;;;;;;;0.00;0.00;;;;;;;;;;1752727;28;20201;-68
2022/09/17 04:34:41;;;;;;;0.00;0.00;;;;;;;;;;1753342;28;20208;-68
2022/09/17 04:35:32;;;;;;;0.00;0.00;;;;;;;;;;1751785;28;20233;-67
2022/09/17 04:36:25;;;;;;;0.00;0.00;;;;;;;;;;1747522;28;20228;-67
2022/09/17 04:37:17;;;;;;;0.00;0.00;;;;;;;;;;1750310;28;20298;-68
2022/09/17 04:38:12;;;;;;;0.00;0.00;;;;;;;;;;1749238;28;20270;-67
2022/09/17 04:39:03;;;;;;;0.00;0.00;;;;;;;;;;1753146;28;20354;-68
2022/09/17 04:39:55;;;;;;;0.00;0.00;;;;;;;;;;1753251;28;20197;-67
2022/09/17 04:40:47;;;;;;;0.00;0.00;;;;;;;;;;1752400;28;20579;-68
2022/09/17 04:41:39;;;;;;;0.00;0.00;;;;;;;;;;1753204;28;20647;-68
2022/09/17 04:42:30;;;;;;;0.00;0.00;;;;;;;;;;1753329;28;20344;-68
2022/09/17 04:43:22;;;;;;;0.00;0.00;;;;;;;;;;1753127;28;20205;-68
2022/09/17 04:44:13;;;;;;;0.00;0.00;;;;;;;;;;1753352;28;20213;-68
2022/09/17 04:45:05;;;;;;;0.00;0.00;;;;;;;;;;1753411;28;20200;-68
2022/09/17 04:45:57;;;;;;;0.00;0.00;;;;;;;;;;1752286;28;20795;-68
2022/09/17 04:46:49;;;;;;;0.00;0.00;;;;;;;;;;1753033;28;20623;-68
2022/09/17 04:47:41;;;;;;;0.00;0.00;;;;;;;;;;1753505;28;20559;-68
2022/09/17 04:48:32;;;;;;;0.00;0.00;;;;;;;;;;1752980;28;20205;-68
2022/09/17 04:49:28;;;;;;;0.00;0.00;;;;;;;;;;1753497;28;20213;-68
2022/09/17 04:50:20;;;;;;;0.00;0.00;;;;;;;;;;1751911;28;20213;-67
2022/09/17 04:51:12;;;;;;;0.00;0.00;;;;;;;;;;1753520;28;20608;-67
2022/09/17 04:52:04;;;;;;;0.00;0.00;;;;;;;;;;1752617;28;20206;-67
2022/09/17 04:52:57;;;;;;;0.00;0.00;;;;;;;;;;1753397;28;20555;-67
2022/09/17 04:53:48;;;;;;;0.00;0.00;;;;;;;;;;1753014;28;20270;-67
2022/09/17 04:54:40;;;;;;;0.00;0.00;;;;;;;;;;1753274;28;20208;-68
2022/09/17 04:55:31;;;;;;;0.10;0.10;;;;;;;;;;1751950;28;20370;-67
2022/09/17 04:56:23;;;;;;;0.00;0.00;;;;;;;;;;1753327;28;20205;-67
2022/09/17 04:57:14;;;;;;;0.00;0.00;;;;;;;;;;1753057;28;20209;-67
2022/09/17 04:58:07;;;;;;;0.00;0.00;;;;;;;;;;1753130;28;20201;-67
2022/09/17 04:58:58;;;;;;;0.00;0.00;;;;;;;;;;1753426;28;20215;-67
2022/09/17 04:59:50;;;;;;;0.00;0.00;;;;;;;;;;1753053;28;20675;-67
2022/09/17 05:00:41;;;;;;;0.00;0.00;;;;;;;;;;1751864;28;20229;-68
2022/09/17 05:01:33;;;;;;;0.00;0.00;;;;;;;;;;1753154;28;20201;-68
2022/09/17 05:02:24;;;;;;;0.00;0.00;;;;;;;;;;1753179;28;20205;-67
2022/09/17 05:03:17;;;;;;;0.00;0.00;;;;;;;;;;1752957;28;20205;-67
2022/09/17 05:04:08;;;;;;;0.00;0.00;;;;;;;;;;1753096;28;20202;-67
2022/09/17 05:04:59;;;;;;;0.00;0.00;;;;;;;;;;1753014;28;20189;-67
2022/09/17 05:05:51;;;;;;;0.00;0.00;;;;;;;;;;1754572;28;20244;-67
2022/09/17 05:06:42;;;;;;;0.00;0.00;;;;;;;;;;1756744;28;20193;-68
2022/09/17 05:07:38;;;;;;;0.00;0.00;;;;;;;;;;1760516;28;20603;-67
2022/09/17 05:08:30;;;;;;;0.00;0.00;;;;;;;;;;1760136;28;20209;-67
2022/09/17 05:09:22;;;;;;;0.00;0.00;;;;;;;;;;1767050;27;20204;-67
2022/09/17 05:10:13;;;;;;;0.00;0.00;;;;;;;;;;1761314;27;20204;-69
2022/09/17 05:11:06;;;;;;;0.00;0.00;;;;;;;;;;1766302;27;20262;-68
2022/09/17 05:11:57;;;;;;;0.00;0.00;;;;;;;;;;1761191;27;20204;-68
2022/09/17 05:12:49;;;;;;;0.00;0.00;;;;;;;;;;1767399;27;20269;-68
2022/09/17 05:13:41;;;;;;;0.00;0.00;;;;;;;;;;1761099;27;20235;-67
2022/09/17 05:14:33;;;;;;;0.00;0.00;;;;;;;;;;1767475;27;20196;-68
2022/09/17 05:15:25;;;;;;;0.00;0.00;;;;;;;;;;1760120;27;20513;-68
2022/09/17 05:16:17;;;;;;;0.00;0.00;;;;;;;;;;1767359;27;20226;-68
2022/09/17 05:17:08;;;;;;;0.00;0.00;;;;;;;;;;1759594;28;20311;-70
2022/09/17 05:18:00;;;;;;;0.00;0.00;;;;;;;;;;1760326;28;20228;-68
2022/09/17 05:18:52;;;;;;;0.00;0.00;;;;;;;;;;1762167;27;20205;-68
2022/09/17 05:19:44;;;;;;;0.00;0.00;;;;;;;;;;1766287;27;20682;-68
2022/09/17 05:20:35;;;;;;;0.00;0.00;;;;;;;;;;1758665;28;20236;-68